createdAt,value
2023-03-31T00:02:14.012Z,1.40
2023-03-31T00:04:53.033Z,1.20
2023-03-31T00:07:24.936Z,1.30
2023-03-31T00:10:07.078Z,1.40
2023-03-31T00:12:47.172Z,1.40
2023-03-31T00:15:20.058Z,0.98
2023-03-31T00:17:50.326Z,1.05
2023-03-31T00:20:20.838Z,1.27
2023-03-31T00:22:55.194Z,1.33
2023-03-31T00:25:25.660Z,1.48
2023-03-31T00:27:57.436Z,1.30
2023-03-31T00:30:32.586Z,1.20
2023-03-31T00:33:03.681Z,1.48
2023-03-31T00:35:34.092Z,0.90
2023-03-31T00:38:04.597Z,1.35
2023-03-31T00:40:35.101Z,1.30
2023-03-31T00:43:06.552Z,1.05
2023-03-31T00:45:40.104Z,1.30
2023-03-31T00:48:18.577Z,1.40
2023-03-31T00:50:57.074Z,1.40
2023-03-31T00:53:35.011Z,1.42
2023-03-31T00:56:15.380Z,1.10
2023-03-31T00:58:50.433Z,1.23
2023-03-31T01:01:27.420Z,1.23
2023-03-31T01:03:59.430Z,1.10
2023-03-31T01:06:35.678Z,1.58
2023-03-31T01:09:08.411Z,1.13
2023-03-31T01:11:40.042Z,1.48
2023-03-31T01:14:10.710Z,1.73
2023-03-31T01:16:43.622Z,1.42
2023-03-31T01:19:28.665Z,1.38
2023-03-31T01:22:49.683Z,1.77
2023-03-31T01:26:12.943Z,1.65
2023-03-31T01:28:52.538Z,1.60
2023-03-31T01:32:12.225Z,1.77
2023-03-31T01:35:19.733Z,1.55
2023-03-31T01:39:16.486Z,2.10
2023-03-31T01:42:04.137Z,2.05
2023-03-31T01:44:46.661Z,2.20
2023-03-31T01:47:25.760Z,1.92
2023-03-31T01:50:06.205Z,2.05
2023-03-31T01:52:46.917Z,2.28
2023-03-31T01:55:27.199Z,2.25
2023-03-31T01:58:15.148Z,1.58
2023-03-31T02:00:57.116Z,1.70
2023-03-31T02:03:34.615Z,1.70
2023-03-31T02:06:15.961Z,1.83
2023-03-31T02:08:53.965Z,1.63
2023-03-31T02:11:25.774Z,1.48
2023-03-31T02:14:04.865Z,1.63
2023-03-31T02:16:41.984Z,1.88
2023-03-31T02:19:14.534Z,1.25
2023-03-31T02:21:51.673Z,1.17
2023-03-31T02:24:27.892Z,1.20
2023-03-31T02:27:10.825Z,1.75
2023-03-31T02:29:44.410Z,1.70
2023-03-31T02:32:24.187Z,1.40
2023-03-31T02:34:54.671Z,1.42
2023-03-31T02:37:25.463Z,1.42
2023-03-31T02:40:00.093Z,1.35
2023-03-31T02:42:30.865Z,1.80
2023-03-31T02:45:30.529Z,1.52
2023-03-31T02:48:01.107Z,1.40
2023-03-31T02:50:43.620Z,1.30
2023-03-31T02:53:26.772Z,1.38
2023-03-31T02:56:22.285Z,1.33
2023-03-31T02:59:13.074Z,1.70
2023-03-31T03:02:10.728Z,1.45
2023-03-31T03:05:29.773Z,1.60
2023-03-31T03:08:12.106Z,2.15
2023-03-31T03:11:03.181Z,1.27
2023-03-31T03:13:45.025Z,1.95
2023-03-31T03:16:24.734Z,1.48
2023-03-31T03:19:08.657Z,1.60
2023-03-31T03:21:39.106Z,1.50
2023-03-31T03:24:11.761Z,1.50
2023-03-31T03:26:41.915Z,1.70
2023-03-31T03:29:13.389Z,1.45
2023-03-31T03:31:43.771Z,1.52
2023-03-31T03:34:18.840Z,1.73
2023-03-31T03:36:49.977Z,2.10
2023-03-31T03:39:21.665Z,1.92
2023-03-31T03:41:51.845Z,1.50
2023-03-31T03:44:22.097Z,1.92
2023-03-31T03:46:52.369Z,1.60
2023-03-31T03:49:25.479Z,1.27
2023-03-31T03:51:55.763Z,1.30
2023-03-31T03:54:26.111Z,1.13
2023-03-31T03:56:56.409Z,1.52
2023-03-31T03:59:26.720Z,1.70
2023-03-31T04:01:57.012Z,1.10
2023-03-31T04:04:29.918Z,1.33
2023-03-31T04:07:00.155Z,1.45
2023-03-31T04:09:31.420Z,1.00
2023-03-31T04:12:01.744Z,1.13
2023-03-31T04:14:31.977Z,1.15
2023-03-31T04:17:04.327Z,1.13
2023-03-31T04:19:38.651Z,1.63
2023-03-31T04:22:11.886Z,1.20
2023-03-31T04:24:42.114Z,1.25
2023-03-31T04:27:13.633Z,1.08
2023-03-31T04:29:47.707Z,1.35
2023-03-31T04:32:22.029Z,1.17
2023-03-31T04:35:02.800Z,0.93
2023-03-31T04:37:39.054Z,1.20
2023-03-31T04:40:16.476Z,1.27
2023-03-31T04:42:48.080Z,0.90
2023-03-31T04:45:18.387Z,1.17
2023-03-31T04:47:48.675Z,1.08
2023-03-31T04:50:23.647Z,1.02
2023-03-31T04:52:53.942Z,1.00
2023-03-31T04:55:24.143Z,1.42
2023-03-31T04:57:54.517Z,1.27
2023-03-31T05:00:26.694Z,0.90
2023-03-31T05:02:57.249Z,0.85
2023-03-31T05:05:34.514Z,0.90
2023-03-31T05:08:04.889Z,1.20
2023-03-31T05:10:35.534Z,0.90
2023-03-31T05:13:05.903Z,0.82
2023-03-31T05:15:36.086Z,0.80
2023-03-31T05:18:09.094Z,0.98
2023-03-31T05:20:42.028Z,1.10
2023-03-31T05:23:12.384Z,0.95
2023-03-31T05:25:42.798Z,0.82
2023-03-31T05:28:13.143Z,0.70
2023-03-31T05:30:43.322Z,0.80
2023-03-31T05:33:15.049Z,0.60
2023-03-31T05:35:48.094Z,0.50
2023-03-31T05:38:18.286Z,0.43
2023-03-31T05:40:51.539Z,0.65
2023-03-31T05:43:21.784Z,0.52
2023-03-31T05:45:52.262Z,0.60
2023-03-31T05:48:22.528Z,1.23
2023-03-31T05:50:58.749Z,0.82
2023-03-31T05:53:30.265Z,0.93
2023-03-31T05:56:02.115Z,0.65
2023-03-31T05:58:33.419Z,0.60
2023-03-31T06:01:09.396Z,0.60
2023-03-31T06:03:43.043Z,0.90
2023-03-31T06:06:16.693Z,0.50
2023-03-31T06:08:48.866Z,1.40
2023-03-31T06:11:22.716Z,0.80
2023-03-31T06:13:53.786Z,1.20
2023-03-31T06:16:24.001Z,0.68
2023-03-31T06:18:55.962Z,1.25
2023-03-31T06:21:28.746Z,1.17
2023-03-31T06:24:00.549Z,0.98
2023-03-31T06:26:31.661Z,1.00
2023-03-31T06:29:01.849Z,0.82
2023-03-31T06:31:32.289Z,0.98
2023-03-31T06:34:02.685Z,0.93
2023-03-31T06:36:36.025Z,0.80
2023-03-31T06:39:06.677Z,0.47
2023-03-31T06:41:37.478Z,0.60
2023-03-31T06:44:10.640Z,0.90
2023-03-31T06:46:41.097Z,0.60
2023-03-31T06:49:11.553Z,0.80
2023-03-31T06:51:44.425Z,0.80
2023-03-31T06:54:15.861Z,0.95
2023-03-31T06:56:46.038Z,0.50
2023-03-31T06:59:16.487Z,0.85
2023-03-31T07:01:48.906Z,0.60
2023-03-31T07:04:19.808Z,0.60
2023-03-31T07:06:52.628Z,0.40
2023-03-31T07:09:24.131Z,0.77
2023-03-31T07:11:56.604Z,0.43
2023-03-31T07:14:27.521Z,0.73
2023-03-31T07:16:57.748Z,0.90
2023-03-31T07:19:28.339Z,0.50
2023-03-31T07:22:01.140Z,0.70
2023-03-31T07:24:31.424Z,0.68
2023-03-31T07:27:01.801Z,0.95
2023-03-31T07:29:32.176Z,0.77
2023-03-31T07:32:02.451Z,0.90
2023-03-31T07:34:37.747Z,0.77
2023-03-31T07:37:10.728Z,1.20
2023-03-31T07:39:40.915Z,1.10
2023-03-31T07:42:11.308Z,1.00
2023-03-31T07:44:41.706Z,1.10
2023-03-31T07:47:12.159Z,0.60
2023-03-31T07:49:44.558Z,0.60
2023-03-31T07:52:17.509Z,0.80
2023-03-31T07:54:50.795Z,0.93
2023-03-31T07:57:22.522Z,0.90
2023-03-31T07:59:55.177Z,1.00
2023-03-31T08:02:25.679Z,0.82
2023-03-31T08:04:56.411Z,1.10
2023-03-31T08:07:31.108Z,1.00
2023-03-31T08:10:02.677Z,1.20
2023-03-31T08:12:32.869Z,1.13
2023-03-31T08:15:03.268Z,1.20
2023-03-31T08:17:33.894Z,0.85
2023-03-31T08:20:07.976Z,1.50
2023-03-31T08:22:42.150Z,1.05
2023-03-31T08:25:14.233Z,0.98
2023-03-31T08:27:44.476Z,1.08
2023-03-31T08:30:16.709Z,1.10
2023-03-31T08:32:47.527Z,1.10
2023-03-31T08:35:17.934Z,1.20
2023-03-31T08:40:30.451Z,1.40
2023-03-31T08:43:10.557Z,1.33
2023-03-31T08:45:47.861Z,1.50
2023-03-31T08:48:29.299Z,1.98
2023-03-31T08:51:06.754Z,1.50
2023-03-31T08:53:46.610Z,1.60
2023-03-31T08:56:22.681Z,2.35
2023-03-31T08:58:55.762Z,1.70
2023-03-31T09:01:52.117Z,1.60
2023-03-31T09:04:51.715Z,1.90
2023-03-31T09:07:35.019Z,2.05
2023-03-31T09:10:29.031Z,2.25
2023-03-31T09:13:15.770Z,1.80
2023-03-31T09:15:53.496Z,1.88
2023-03-31T09:18:35.830Z,1.75
2023-03-31T09:21:20.185Z,1.80
2023-03-31T09:24:00.493Z,2.20
2023-03-31T09:26:43.253Z,1.90
2023-03-31T09:29:20.837Z,2.00
2023-03-31T09:31:51.108Z,2.33
2023-03-31T09:34:29.018Z,1.85
2023-03-31T09:36:59.185Z,2.17
2023-03-31T09:39:29.882Z,1.83
2023-03-31T09:42:02.731Z,2.47
2023-03-31T09:44:45.122Z,2.45
2023-03-31T09:47:24.163Z,2.28
2023-03-31T09:49:54.687Z,2.00
2023-03-31T09:52:33.849Z,1.95
2023-03-31T09:55:07.647Z,1.88
2023-03-31T09:57:43.374Z,2.25
2023-03-31T10:00:21.478Z,2.13
2023-03-31T10:02:54.551Z,1.52
2023-03-31T10:05:33.399Z,1.50
2023-03-31T10:08:34.597Z,1.80
2023-03-31T10:11:14.956Z,1.75
2023-03-31T10:13:59.114Z,1.85
2023-03-31T10:16:35.046Z,1.85
2023-03-31T10:19:22.496Z,1.05
2023-03-31T10:22:01.063Z,1.55
2023-03-31T10:24:41.744Z,1.58
2023-03-31T10:27:26.393Z,1.25
2023-03-31T10:30:01.933Z,1.27
2023-03-31T10:32:35.557Z,1.40
2023-03-31T10:35:16.292Z,1.40
2023-03-31T10:37:46.685Z,1.60
2023-03-31T10:40:26.405Z,1.35
2023-03-31T10:43:12.085Z,1.50
2023-03-31T10:45:52.081Z,2.03
2023-03-31T10:48:29.586Z,1.50
2023-03-31T10:51:08.105Z,1.08
2023-03-31T10:53:46.410Z,1.52
2023-03-31T10:56:40.840Z,1.50
2023-03-31T10:59:32.601Z,1.90
2023-03-31T11:02:55.226Z,1.13
2023-03-31T11:05:37.580Z,1.20
2023-03-31T11:08:47.278Z,0.90
2023-03-31T11:11:52.866Z,1.50
2023-03-31T11:14:47.119Z,1.33
2023-03-31T11:17:39.211Z,1.02
2023-03-31T11:20:30.896Z,1.40
2023-03-31T11:23:13.664Z,1.23
2023-03-31T11:25:56.407Z,1.10
2023-03-31T11:29:04.084Z,2.63
2023-03-31T11:31:48.382Z,1.85
2023-03-31T11:34:54.970Z,2.03
2023-03-31T11:38:08.497Z,1.73
2023-03-31T11:40:56.971Z,1.88
2023-03-31T11:43:36.857Z,1.70
2023-03-31T11:46:13.208Z,1.92
2023-03-31T11:48:57.483Z,2.60
2023-03-31T11:51:38.101Z,1.85
2023-03-31T11:54:12.431Z,0.60
2023-03-31T11:56:44.834Z,0.65
2023-03-31T11:59:21.492Z,4.32
2023-03-31T12:02:01.158Z,14.82
2023-03-31T12:04:40.976Z,10.85
2023-03-31T12:07:32.964Z,13.85
2023-03-31T12:10:15.480Z,2.05
2023-03-31T12:12:52.255Z,1.70
2023-03-31T12:15:32.976Z,0.73
2023-03-31T12:18:12.983Z,0.98
2023-03-31T12:20:50.643Z,1.20
2023-03-31T12:23:31.581Z,1.17
2023-03-31T12:26:18.409Z,1.38
2023-03-31T12:28:56.012Z,1.20
2023-03-31T12:31:33.679Z,1.17
2023-03-31T12:34:10.455Z,1.02
2023-03-31T12:37:00.935Z,1.30
2023-03-31T12:39:53.870Z,1.20
2023-03-31T12:43:25.208Z,1.17
2023-03-31T12:46:10.051Z,2.00
2023-03-31T12:49:02.338Z,1.70
2023-03-31T12:52:01.099Z,2.10
2023-03-31T12:55:32.350Z,1.27
2023-03-31T12:58:40.698Z,1.77
2023-03-31T13:02:21.838Z,2.30
2023-03-31T13:04:53.566Z,2.03
2023-03-31T13:07:44.273Z,1.90
2023-03-31T13:10:34.019Z,1.58
2023-03-31T13:13:08.338Z,1.65
2023-03-31T13:15:38.602Z,1.75
2023-03-31T13:18:11.057Z,1.38
2023-03-31T13:20:43.639Z,1.63
2023-03-31T13:23:25.772Z,1.60
2023-03-31T13:26:00.382Z,2.08
2023-03-31T13:28:46.737Z,2.05
2023-03-31T13:31:18.550Z,2.25
2023-03-31T13:33:58.612Z,1.88
2023-03-31T13:37:14.032Z,2.35
2023-03-31T13:40:08.985Z,1.65
2023-03-31T13:43:24.717Z,1.55
2023-03-31T13:46:22.732Z,1.30
2023-03-31T13:49:12.863Z,1.50
2023-03-31T13:51:59.865Z,1.38
2023-03-31T13:55:20.953Z,1.35
2023-03-31T13:58:59.308Z,1.23
2023-03-31T14:02:06.945Z,0.95
2023-03-31T14:05:26.618Z,1.20
2023-03-31T14:08:01.578Z,1.00
2023-03-31T14:10:36.429Z,1.23
2023-03-31T14:13:18.453Z,1.70
2023-03-31T14:15:54.561Z,1.50
2023-03-31T14:18:33.727Z,1.20
2023-03-31T14:21:23.191Z,1.60
2023-03-31T14:24:08.331Z,1.50
2023-03-31T14:26:59.908Z,1.40
2023-03-31T14:29:42.298Z,1.38
2023-03-31T14:32:29.178Z,1.10
2023-03-31T14:35:29.553Z,1.05
2023-03-31T14:38:00.747Z,1.38
2023-03-31T14:40:31.109Z,0.88
2023-03-31T14:43:02.264Z,1.10
2023-03-31T14:45:34.787Z,1.13
2023-03-31T14:48:16.511Z,1.42
2023-03-31T14:50:50.246Z,1.27
2023-03-31T14:53:26.466Z,1.58
2023-03-31T14:56:09.101Z,1.52
2023-03-31T14:58:45.773Z,2.00
2023-03-31T15:01:24.074Z,1.55
2023-03-31T15:03:57.531Z,1.52
2023-03-31T15:06:33.362Z,2.33
2023-03-31T15:09:07.151Z,1.33
2023-03-31T15:11:37.474Z,1.50
2023-03-31T15:14:08.770Z,1.25
2023-03-31T15:16:45.156Z,1.33
2023-03-31T15:19:19.628Z,1.38
2023-03-31T15:22:01.946Z,1.30
2023-03-31T15:24:33.228Z,1.27
2023-03-31T15:27:14.871Z,1.25
2023-03-31T15:29:50.552Z,1.30
2023-03-31T15:32:29.124Z,2.00
2023-03-31T15:38:01.551Z,4.38
2023-03-31T15:40:35.409Z,2.53
2023-03-31T15:43:25.422Z,1.70
2023-03-31T15:46:00.759Z,0.82
2023-03-31T15:48:35.905Z,1.33
2023-03-31T15:51:20.950Z,1.10
2023-03-31T15:53:56.074Z,1.30
2023-03-31T15:56:38.349Z,1.00
2023-03-31T15:59:11.542Z,1.10
2023-03-31T16:01:48.694Z,1.02
2023-03-31T16:04:20.739Z,1.13
2023-03-31T16:06:58.372Z,1.30
2023-03-31T16:09:50.699Z,0.90
2023-03-31T16:12:28.138Z,0.85
2023-03-31T16:15:05.897Z,0.90
2023-03-31T16:17:43.856Z,0.70
2023-03-31T16:20:24.793Z,0.88
2023-03-31T16:22:58.937Z,0.68
2023-03-31T16:25:44.940Z,0.70
2023-03-31T16:28:21.263Z,0.77
2023-03-31T16:30:53.372Z,0.88
2023-03-31T16:33:26.092Z,0.82
2023-03-31T16:35:59.379Z,0.63
2023-03-31T16:38:32.333Z,0.82
2023-03-31T16:41:05.212Z,0.70
2023-03-31T16:43:35.526Z,1.17
2023-03-31T16:46:06.778Z,0.90
2023-03-31T16:48:36.983Z,0.80
2023-03-31T16:51:10.172Z,0.73
2023-03-31T16:53:40.466Z,1.10
2023-03-31T16:56:14.707Z,0.50
2023-03-31T16:58:45.400Z,0.98
2023-03-31T17:01:16.799Z,1.05
2023-03-31T17:03:47.225Z,0.60
2023-03-31T17:06:17.867Z,1.02
2023-03-31T17:08:48.427Z,0.73
2023-03-31T17:11:21.633Z,0.82
2023-03-31T17:13:52.236Z,1.23
2023-03-31T17:16:29.373Z,1.33
2023-03-31T17:19:10.756Z,1.08
2023-03-31T17:21:41.131Z,1.45
2023-03-31T17:24:11.729Z,1.13
2023-03-31T17:26:47.122Z,1.20
2023-03-31T17:29:17.385Z,1.00
2023-03-31T17:31:48.155Z,0.93
2023-03-31T17:34:18.415Z,0.98
2023-03-31T17:36:51.301Z,0.98
2023-03-31T17:39:22.770Z,0.77
2023-03-31T17:41:55.608Z,1.08
2023-03-31T17:44:26.013Z,0.80
2023-03-31T17:46:56.335Z,0.80
2023-03-31T17:49:27.793Z,0.80
2023-03-31T17:51:58.101Z,0.70
2023-03-31T17:54:29.061Z,1.00
2023-03-31T17:57:01.922Z,0.77
2023-03-31T17:59:32.384Z,0.88
2023-03-31T18:02:02.719Z,0.85
2023-03-31T18:04:33.104Z,1.20
2023-03-31T18:07:03.328Z,1.92
2023-03-31T18:09:34.067Z,1.48
2023-03-31T18:12:07.499Z,0.77
2023-03-31T18:14:38.460Z,1.17
2023-03-31T18:17:08.864Z,0.90
2023-03-31T18:19:39.429Z,1.02
2023-03-31T18:22:09.591Z,1.25
2023-03-31T18:24:40.940Z,1.20
2023-03-31T18:27:13.745Z,1.60
2023-03-31T18:29:43.956Z,1.77
2023-03-31T18:32:15.672Z,1.10
2023-03-31T18:34:45.935Z,1.60
2023-03-31T18:37:18.547Z,0.90
2023-03-31T18:39:49.048Z,1.55
2023-03-31T18:42:25.244Z,1.00
2023-03-31T18:44:56.333Z,1.08
2023-03-31T18:47:26.671Z,0.90
2023-03-31T18:49:58.281Z,0.88
2023-03-31T18:52:28.555Z,0.70
2023-03-31T18:54:58.843Z,0.98
2023-03-31T18:57:31.973Z,0.70
2023-03-31T19:00:02.297Z,1.10
2023-03-31T19:02:32.622Z,0.90
2023-03-31T19:05:02.911Z,0.90
2023-03-31T19:07:33.398Z,1.02
2023-03-31T19:10:05.118Z,1.17
2023-03-31T19:12:38.025Z,1.00
2023-03-31T19:15:13.582Z,0.77
2023-03-31T19:17:43.779Z,1.17
2023-03-31T19:20:16.810Z,0.80
2023-03-31T19:22:49.409Z,0.88
2023-03-31T19:25:22.831Z,1.08
2023-03-31T19:27:57.990Z,0.90
2023-03-31T19:30:28.401Z,0.80
2023-03-31T19:33:01.802Z,0.88
2023-03-31T19:35:34.160Z,0.98
2023-03-31T19:38:05.197Z,1.08
2023-03-31T19:40:35.489Z,1.17
2023-03-31T19:43:12.726Z,0.82
2023-03-31T19:45:42.960Z,1.00
2023-03-31T19:48:13.173Z,1.02
2023-03-31T19:50:43.602Z,0.90
2023-03-31T19:53:13.878Z,1.00
2023-03-31T19:55:44.313Z,1.05
2023-03-31T19:58:17.116Z,1.33
2023-03-31T20:00:47.336Z,0.70
2023-03-31T20:03:20.521Z,1.20
2023-03-31T20:05:52.096Z,1.10
2023-03-31T20:08:22.579Z,0.90
2023-03-31T20:10:52.934Z,0.93
2023-03-31T20:13:25.957Z,1.00
2023-03-31T20:16:08.739Z,1.20
2023-03-31T20:18:43.619Z,0.70
